Joetsu, Japan
Current Conditions -  °F | °C
As of 5:00 PM on Tuesday 27 Jan 2015 (Local Time) from RJNT Reporting Station
Rain Showers Rain Showers  
Wind Chill: 32°   Ceiling: 800
Heat Index: 39°   Visibility: 1.5mi
Dew Point: 36°   Wind: 12mph
Humidity: 87%   Direction: 360°N
Pressure: 29.97"   Gusts: NA
Location:  37.12°N, 138.25°E
Report Text: RJNT 270800Z 36010KT 2500 SHRA BR SCT005 BKN008 BKN015 04/02 Q1015
Loading
Personal Weather Stations






























Interactive Weather Map New forecast layout! Learn more

10-Day Weather Forecast

Advertisements
Track Severe Weather on mobile